Time;durP1;ratioP1;P1;durP2;ratioP2;P2;SDS_P1;SDS_P2;PMS_P1;PMS_P2;Temp;Humidity;BMP_temperature;BMP_pressure;BME280_temperature;BME280_humidity;BME280_pressure;Samples;Min_cycle;Max_cycle;Signal;HPM_P1;HPM_P2
2023/02/26 00:02:24;;;;;;;9.70;1.70;;;0.40;99.90;;;;;;5031435;28;20390;-49
2023/02/26 00:04:49;;;;;;;6.67;1.37;;;0.40;99.90;;;;;;5030788;28;20029;-51
2023/02/26 00:07:15;;;;;;;5.37;1.57;;;0.40;99.90;;;;;;5030824;28;20037;-49
2023/02/26 00:09:41;;;;;;;6.17;1.50;;;0.40;99.90;;;;;;5029980;28;20151;-49
2023/02/26 00:12:09;;;;;;;11.27;1.60;;;0.40;99.90;;;;;;5030900;28;20033;-50
2023/02/26 00:14:35;;;;;;;6.20;1.80;;;0.30;99.90;;;;;;5030553;28;20037;-49
2023/02/26 00:17:24;;;;;;;6.43;1.80;;;0.30;99.90;;;;;;5030578;28;20094;-52
2023/02/26 00:19:50;;;;;;;7.57;1.70;;;0.40;99.90;;;;;;5029479;28;20034;-52
2023/02/26 00:22:16;;;;;;;6.30;1.87;;;0.40;99.90;;;;;;5030625;28;20060;-51
2023/02/26 00:24:42;;;;;;;6.00;1.73;;;0.40;99.90;;;;;;5029383;28;20116;-52
2023/02/26 00:27:10;;;;;;;7.43;1.60;;;0.40;99.90;;;;;;5030758;28;20138;-50
2023/02/26 00:29:37;;;;;;;8.40;1.80;;;0.50;99.90;;;;;;5012904;28;20033;-52
2023/02/26 00:32:03;;;;;;;9.93;1.93;;;0.50;99.90;;;;;;5030593;28;20896;-52
2023/02/26 00:34:30;;;;;;;11.07;1.73;;;0.50;99.90;;;;;;5030169;28;20034;-52
2023/02/26 00:37:23;;;;;;;9.23;2.20;;;0.50;99.90;;;;;;5030320;28;20041;-53
2023/02/26 00:39:53;;;;;;;7.20;1.80;;;0.60;99.90;;;;;;5030633;28;20371;-50
2023/02/26 00:42:19;;;;;;;8.17;1.63;;;0.60;99.90;;;;;;5012846;28;20597;-50
2023/02/26 00:44:45;;;;;;;8.47;1.50;;;0.60;99.90;;;;;;5030280;28;20033;-53
2023/02/26 00:47:23;;;;;;;9.83;1.77;;;0.70;99.90;;;;;;5030194;28;20037;-51
2023/02/26 00:50:02;;;;;;;5.90;1.43;;;0.70;99.90;;;;;;5030419;28;20025;-48
2023/02/26 00:52:48;;;;;;;9.37;1.50;;;0.80;99.90;;;;;;5030415;28;20505;-52
2023/02/26 00:55:14;;;;;;;7.80;2.00;;;0.70;99.90;;;;;;5016116;28;20060;-50
2023/02/26 00:57:40;;;;;;;6.37;1.60;;;0.80;99.90;;;;;;5030220;28;20286;-51
2023/02/26 01:00:07;;;;;;;6.70;1.77;;;0.80;99.90;;;;;;5030210;28;20095;-50
2023/02/26 01:02:35;;;;;;;5.23;1.70;;;0.70;99.90;;;;;;5012590;28;20037;-53
2023/02/26 01:05:01;;;;;;;4.90;1.60;;;0.70;99.90;;;;;;5030285;28;20434;-53
2023/02/26 01:07:28;;;;;;;7.80;1.50;;;0.70;99.90;;;;;;5012364;28;20083;-50
2023/02/26 01:09:54;;;;;;;5.57;1.80;;;0.60;99.90;;;;;;5030327;28;20028;-53
2023/02/26 01:12:20;;;;;;;5.80;1.60;;;0.60;99.90;;;;;;5030190;28;20210;-54
2023/02/26 01:14:46;;;;;;;9.77;1.73;;;0.60;99.90;;;;;;5029899;28;20116;-50
2023/02/26 01:17:18;;;;;;;9.63;1.50;;;0.60;99.90;;;;;;5030299;28;20030;-50
2023/02/26 01:20:05;;;;;;;11.20;2.00;;;0.50;99.90;;;;;;5012333;28;20034;-53
2023/02/26 01:22:39;;;;;;;7.50;1.97;;;0.50;99.90;;;;;;5033172;28;20025;-50
2023/02/26 01:25:10;;;;;;;6.60;1.70;;;0.60;99.90;;;;;;5033681;28;20049;-53
2023/02/26 01:27:36;;;;;;;5.67;1.67;;;0.50;99.90;;;;;;5016109;28;20037;-51
2023/02/26 01:30:04;;;;;;;9.13;1.70;;;0.60;99.90;;;;;;5016053;28;20036;-51
2023/02/26 01:32:45;;;;;;;4.20;1.60;;;0.50;99.90;;;;;;5034021;28;20029;-52
2023/02/26 01:35:30;;;;;;;4.97;1.53;;;0.50;99.90;;;;;;5033333;28;20061;-49
2023/02/26 01:38:03;;;;;;;7.77;1.50;;;0.50;99.90;;;;;;5015820;28;20556;-52
2023/02/26 01:40:51;;;;;;;10.33;1.70;;;0.40;99.90;;;;;;5033664;28;20059;-49
2023/02/26 01:43:26;;;;;;;7.43;1.47;;;0.40;99.90;;;;;;5033616;28;20082;-51
2023/02/26 01:45:58;;;;;;;7.77;1.70;;;0.40;99.90;;;;;;5032307;28;20127;-51
2023/02/26 01:48:47;;;;;;;10.10;1.70;;;0.30;99.90;;;;;;5033395;28;20037;-48
2023/02/26 01:51:13;;;;;;;4.45;1.15;;;0.30;99.90;;;;;;5033692;28;20132;-51
2023/02/26 01:53:39;;;;;;;5.90;1.87;;;0.30;99.90;;;;;;5033270;28;20061;-54
2023/02/26 01:56:18;;;;;;;8.00;1.70;;;0.20;99.90;;;;;;5033356;28;20036;-48
2023/02/26 01:58:47;;;;;;;6.83;1.60;;;0.20;99.90;;;;;;5033375;28;20029;-51
2023/02/26 02:01:13;;;;;;;7.67;1.77;;;0.10;99.90;;;;;;5033272;28;20428;-48
2023/02/26 02:03:40;;;;;;;5.63;1.53;;;0.10;99.90;;;;;;5033216;28;20043;-50
2023/02/26 02:06:14;;;;;;;4.50;1.67;;;0.10;99.90;;;;;;5015482;28;20033;-48
2023/02/26 02:08:40;;;;;;;6.67;1.80;;;0.10;99.90;;;;;;5015183;28;20114;-51
2023/02/26 02:11:09;;;;;;;6.77;1.60;;;0.00;99.90;;;;;;5032223;28;20498;-50
2023/02/26 02:13:35;;;;;;;7.88;1.42;;;0.10;99.90;;;;;;5031636;28;20033;-54
2023/02/26 02:16:15;;;;;;;7.90;1.70;;;0.00;99.90;;;;;;5033217;28;20112;-50
2023/02/26 02:19:08;;;;;;;4.77;1.60;;;0.00;99.90;;;;;;5015091;28;20044;-50
2023/02/26 02:21:36;;;;;;;8.47;1.87;;;0.00;99.90;;;;;;5033037;28;20029;-53
2023/02/26 02:24:27;;;;;;;6.87;1.77;;;0.00;99.90;;;;;;5032607;28;20537;-53
2023/02/26 02:26:58;;;;;;;7.57;1.73;;;-0.10;99.90;;;;;;5001146;28;20042;-52
2023/02/26 02:29:24;;;;;;;6.03;1.50;;;-0.10;99.90;;;;;;5032704;28;20037;-47
2023/02/26 02:31:53;;;;;;;6.33;1.60;;;-0.10;99.90;;;;;;5015071;28;20381;-50
2023/02/26 02:34:20;;;;;;;9.80;1.60;;;-0.10;99.90;;;;;;5031413;28;20041;-49
2023/02/26 02:36:50;;;;;;;5.50;1.40;;;-0.20;99.90;;;;;;5032539;28;20367;-51
2023/02/26 02:39:21;;;;;;;8.00;1.40;;;-0.20;99.90;;;;;;5031267;28;20029;-52
2023/02/26 02:42:02;;;;;;;5.27;1.50;;;-0.30;99.90;;;;;;5032606;28;20029;-48
2023/02/26 02:44:31;;;;;;;4.50;1.50;;;-0.30;99.90;;;;;;5031244;28;20402;-51
2023/02/26 02:46:58;;;;;;;4.65;1.50;;;-0.30;99.90;;;;;;5014565;28;20065;-48
2023/02/26 02:49:33;;;;;;;10.67;1.83;;;-0.30;99.90;;;;;;5032505;28;20029;-51
2023/02/26 02:52:12;;;;;;;8.07;1.57;;;-0.30;99.90;;;;;;5014600;28;20079;-49
2023/02/26 02:54:53;;;;;;;6.47;1.63;;;-0.30;99.90;;;;;;5032032;28;20103;-48
2023/02/26 02:57:23;;;;;;;4.00;1.33;;;-0.30;99.90;;;;;;5014575;28;20403;-52
2023/02/26 02:59:55;;;;;;;6.20;1.40;;;-0.40;99.90;;;;;;5032221;28;20104;-52
2023/02/26 03:02:27;;;;;;;6.57;1.23;;;-0.40;99.90;;;;;;5014479;28;20029;-53
2023/02/26 03:04:53;;;;;;;7.40;1.30;;;-0.40;99.90;;;;;;5031737;28;20030;-53
2023/02/26 03:07:19;;;;;;;7.87;1.43;;;-0.40;99.90;;;;;;5014202;28;20410;-50
2023/02/26 03:09:50;;;;;;;5.17;1.40;;;-0.40;99.90;;;;;;5032179;28;20033;-49
2023/02/26 03:12:17;;;;;;;4.40;1.30;;;-0.50;99.90;;;;;;5032031;28;20045;-49
2023/02/26 03:14:43;;;;;;;3.70;1.30;;;-0.50;99.90;;;;;;5014052;28;20025;-52
2023/02/26 03:17:31;;;;;;;5.40;1.40;;;-0.50;99.90;;;;;;5013945;28;20489;-47
2023/02/26 03:20:15;;;;;;;5.57;1.60;;;-0.50;99.90;;;;;;5031850;28;20021;-50
2023/02/26 03:23:09;;;;;;;6.40;1.70;;;-0.50;99.90;;;;;;5014084;28;20485;-49
2023/02/26 03:25:59;;;;;;;5.90;1.40;;;-0.50;99.90;;;;;;5013863;28;20029;-50
2023/02/26 03:28:43;;;;;;;4.03;1.60;;;-0.50;99.90;;;;;;5013788;28;20034;-49
2023/02/26 03:32:02;;;;;;;8.43;1.87;;;-0.60;99.90;;;;;;5013966;28;20425;-48
2023/02/26 03:34:31;;;;;;;5.17;1.60;;;-0.60;99.90;;;;;;4988997;28;20069;-49
2023/02/26 03:37:14;;;;;;;5.30;1.42;;;-0.60;99.90;;;;;;5013680;28;20033;-52
2023/02/26 03:39:48;;;;;;;6.43;1.60;;;-0.60;99.90;;;;;;5013768;28;20390;-48
2023/02/26 03:42:30;;;;;;;4.97;1.40;;;-0.60;99.90;;;;;;5013643;28;20022;-53
2023/02/26 03:45:13;;;;;;;3.13;1.50;;;-0.60;99.90;;;;;;5013187;28;20033;-50
2023/02/26 03:47:43;;;;;;;4.10;1.13;;;-0.70;99.90;;;;;;5013345;28;20057;-53
2023/02/26 03:50:15;;;;;;;2.63;1.30;;;-0.70;99.90;;;;;;5029916;28;20099;-53
2023/02/26 03:52:52;;;;;;;4.73;1.53;;;-0.70;99.90;;;;;;5029901;28;20486;-53
2023/02/26 03:55:30;;;;;;;3.27;1.40;;;-0.70;99.90;;;;;;5013089;28;20029;-53
2023/02/26 03:58:25;;;;;;;7.03;1.30;;;-0.80;99.90;;;;;;5021772;28;20494;-50
2023/02/26 04:01:17;;;;;;;4.50;1.50;;;-0.80;99.90;;;;;;5013488;28;20052;-53
2023/02/26 04:04:05;;;;;;;5.70;1.30;;;-0.80;99.90;;;;;;5013011;28;20465;-53
2023/02/26 04:06:32;;;;;;;6.07;1.30;;;-0.70;99.90;;;;;;5013157;28;20282;-53
2023/02/26 04:09:01;;;;;;;5.07;1.60;;;-0.70;99.90;;;;;;5013007;28;20030;-52
2023/02/26 04:11:28;;;;;;;7.00;1.40;;;-0.80;99.90;;;;;;5013087;28;20558;-53
2023/02/26 04:13:54;;;;;;;6.40;1.27;;;-0.80;99.90;;;;;;5030465;28;20069;-54
2023/02/26 04:16:19;;;;;;;6.70;1.30;;;-0.80;99.90;;;;;;5012942;28;20091;-49
2023/02/26 04:18:45;;;;;;;8.63;1.67;;;-0.80;99.90;;;;;;5013110;28;20029;-52
2023/02/26 04:21:19;;;;;;;7.53;1.60;;;-0.80;99.90;;;;;;5012937;28;20438;-49
2023/02/26 04:23:45;;;;;;;8.00;1.37;;;-0.80;99.90;;;;;;5012796;28;20033;-48
2023/02/26 04:26:12;;;;;;;9.47;1.57;;;-0.90;99.90;;;;;;5012774;28;20124;-47
2023/02/26 04:28:39;;;;;;;6.10;1.20;;;-0.90;99.90;;;;;;5012858;28;20029;-47
2023/02/26 04:31:06;;;;;;;6.53;1.30;;;-0.90;99.90;;;;;;5013148;28;20044;-50
2023/02/26 04:36:01;;;;;;;6.50;1.30;;;-0.90;99.90;;;;;;5007341;28;19921;-53
2023/02/26 04:38:27;;;;;;;9.17;1.50;;;-1.00;99.90;;;;;;5011144;28;20030;-53
2023/02/26 04:40:53;;;;;;;7.87;1.30;;;-1.00;99.90;;;;;;4993243;28;20049;-54
2023/02/26 04:43:19;;;;;;;4.23;1.20;;;-1.00;99.90;;;;;;4993142;28;20022;-55
2023/02/26 04:45:54;;;;;;;5.70;1.27;;;-1.00;99.90;;;;;;4973888;28;20069;-55
2023/02/26 04:48:20;;;;;;;2.33;0.90;;;-1.00;99.90;;;;;;4973736;28;20060;-56
2023/02/26 04:50:46;;;;;;;4.30;1.30;;;-1.10;99.90;;;;;;4973610;28;20054;-55
2023/02/26 04:53:12;;;;;;;6.23;1.83;;;-1.00;99.90;;;;;;4991193;28;20057;-54
2023/02/26 04:55:39;;;;;;;4.40;1.10;;;-1.10;99.90;;;;;;4989529;28;20065;-53
2023/02/26 04:58:06;;;;;;;5.00;1.43;;;-1.10;99.90;;;;;;4977559;28;20470;-56
2023/02/26 05:00:32;;;;;;;6.03;1.33;;;-1.10;99.90;;;;;;4977632;28;20456;-54
2023/02/26 05:02:58;;;;;;;4.20;1.20;;;-1.10;99.90;;;;;;4977691;28;20117;-55
2023/02/26 05:05:24;;;;;;;8.33;1.43;;;-1.10;99.90;;;;;;4977457;28;20169;-54
2023/02/26 05:07:52;;;;;;;5.20;1.10;;;-1.10;99.90;;;;;;4977387;28;20335;-55
2023/02/26 05:10:18;;;;;;;5.47;1.10;;;-1.20;99.90;;;;;;4961814;28;20034;-51
2023/02/26 05:12:44;;;;;;;2.97;1.00;;;-1.20;99.90;;;;;;4977403;28;20042;-54
2023/02/26 05:15:10;;;;;;;3.50;1.00;;;-1.20;99.90;;;;;;4977115;28;20030;-55
2023/02/26 05:17:36;;;;;;;4.93;1.07;;;-1.20;99.90;;;;;;4993469;28;20027;-54
2023/02/26 05:20:03;;;;;;;3.60;1.20;;;-1.20;99.90;;;;;;4977313;28;20030;-55
2023/02/26 05:22:28;;;;;;;3.73;0.80;;;-1.30;99.90;;;;;;4977387;28;20255;-54
2023/02/26 05:24:55;;;;;;;8.33;1.30;;;-1.30;99.90;;;;;;4976976;28;20441;-55
2023/02/26 05:27:21;;;;;;;6.30;1.07;;;-1.30;99.90;;;;;;4994565;28;20372;-57
2023/02/26 05:29:47;;;;;;;4.10;1.20;;;-1.30;99.90;;;;;;4977223;28;20034;-53
2023/02/26 05:32:13;;;;;;;4.40;1.10;;;-1.30;99.90;;;;;;4977125;28;20034;-52
2023/02/26 05:34:39;;;;;;;4.07;1.10;;;-1.40;99.90;;;;;;4994370;28;20467;-55
2023/02/26 05:37:05;;;;;;;4.97;1.10;;;-1.40;99.90;;;;;;4994500;28;20030;-54
2023/02/26 05:39:30;;;;;;;2.70;0.90;;;-1.40;99.90;;;;;;4994646;28;20487;-51
2023/02/26 05:41:56;;;;;;;3.90;1.20;;;-1.40;99.90;;;;;;4994665;28;20026;-54
2023/02/26 05:44:22;;;;;;;4.97;1.10;;;-1.40;99.90;;;;;;4994403;28;20486;-56
2023/02/26 05:46:48;;;;;;;5.67;1.17;;;-1.40;99.90;;;;;;4994340;28;20513;-55
2023/02/26 05:49:14;;;;;;;9.40;1.83;;;-1.40;99.90;;;;;;4994717;28;20433;-54
2023/02/26 05:51:41;;;;;;;4.70;1.00;;;-1.50;99.90;;;;;;4994644;28;20106;-52
2023/02/26 05:54:08;;;;;;;3.87;0.90;;;-1.40;99.90;;;;;;4994307;28;20403;-54
2023/02/26 05:56:34;;;;;;;5.23;0.90;;;-1.50;99.90;;;;;;4994256;28;20764;-55
2023/02/26 05:59:00;;;;;;;3.67;1.07;;;-1.50;99.90;;;;;;4994415;28;20030;-55
2023/02/26 06:01:26;;;;;;;8.13;1.30;;;-1.50;99.90;;;;;;4994274;28;20433;-52
2023/02/26 06:03:52;;;;;;;7.83;1.20;;;-1.50;99.90;;;;;;4994081;28;20456;-54
2023/02/26 06:06:18;;;;;;;3.93;0.87;;;-1.50;99.90;;;;;;4994265;28;20039;-56
2023/02/26 06:08:44;;;;;;;5.00;0.90;;;-1.50;99.90;;;;;;4992901;28;20073;-55
2023/02/26 06:11:10;;;;;;;3.93;0.80;;;-1.50;99.90;;;;;;4994280;28;20050;-53
2023/02/26 06:13:35;;;;;;;3.20;0.90;;;-1.50;99.90;;;;;;4993734;28;20972;-54
2023/02/26 06:16:01;;;;;;;6.77;1.30;;;-1.50;99.90;;;;;;4993981;28;20541;-54
2023/02/26 06:18:27;;;;;;;8.50;1.27;;;-1.50;99.90;;;;;;4993912;28;20026;-53
2023/02/26 06:20:53;;;;;;;3.70;1.10;;;-1.50;99.90;;;;;;4994036;28;20088;-55
2023/02/26 06:23:19;;;;;;;7.17;1.87;;;-1.50;99.90;;;;;;4993884;28;20033;-54
2023/02/26 06:25:45;;;;;;;5.53;0.90;;;-1.50;99.90;;;;;;4993857;28;20038;-51
2023/02/26 06:28:11;;;;;;;3.80;1.10;;;-1.60;99.90;;;;;;4993677;28;20537;-54
2023/02/26 06:30:36;;;;;;;7.33;0.97;;;-1.60;99.90;;;;;;4993730;28;20429;-52
2023/02/26 06:33:02;;;;;;;3.90;1.00;;;-1.50;99.90;;;;;;4992851;28;20109;-55
2023/02/26 06:35:28;;;;;;;2.53;1.07;;;-1.60;99.90;;;;;;4993472;28;20388;-53
2023/02/26 06:37:55;;;;;;;5.90;1.00;;;-1.60;99.90;;;;;;4993562;28;20030;-53
2023/02/26 06:40:21;;;;;;;3.57;1.13;;;-1.60;99.90;;;;;;4976273;28;20433;-53
2023/02/26 06:42:47;;;;;;;3.10;0.90;;;-1.60;99.90;;;;;;4993674;28;20965;-55
2023/02/26 06:45:13;;;;;;;15.10;1.20;;;-1.50;99.90;;;;;;4993225;28;20462;-54
2023/02/26 06:47:39;;;;;;;7.37;1.27;;;-1.50;99.90;;;;;;4993418;28;20041;-52
2023/02/26 06:50:06;;;;;;;5.37;1.20;;;-1.60;99.90;;;;;;4993546;28;20441;-55
2023/02/26 06:52:32;;;;;;;3.63;1.00;;;-1.60;99.90;;;;;;4993650;28;20549;-54
2023/02/26 06:54:58;;;;;;;3.13;0.70;;;-1.50;99.90;;;;;;4993024;28;21074;-56
2023/02/26 06:57:23;;;;;;;6.07;1.30;;;-1.50;99.90;;;;;;4993140;28;20026;-57
2023/02/26 06:59:50;;;;;;;7.00;1.50;;;-1.50;99.90;;;;;;4993200;28;20019;-54
2023/02/26 07:02:19;;;;;;;5.70;1.40;;;-1.50;99.90;;;;;;4993331;28;20053;-55
2023/02/26 07:04:45;;;;;;;4.90;1.00;;;-1.40;99.90;;;;;;4993038;28;20445;-55
2023/02/26 07:07:11;;;;;;;9.37;1.10;;;-1.40;99.90;;;;;;4993173;28;20433;-55
2023/02/26 07:09:37;;;;;;;5.47;1.00;;;-1.30;99.90;;;;;;4993127;28;20031;-55
2023/02/26 07:12:03;;;;;;;5.43;1.17;;;-1.30;99.90;;;;;;4993013;28;20533;-55
2023/02/26 07:14:29;;;;;;;5.17;1.20;;;-1.30;99.90;;;;;;4992556;28;20034;-53
2023/02/26 07:16:54;;;;;;;6.10;1.13;;;-1.20;99.90;;;;;;4992877;28;20109;-53
2023/02/26 07:19:20;;;;;;;4.60;1.00;;;-1.30;99.90;;;;;;4992294;28;20467;-54
2023/02/26 07:21:47;;;;;;;6.20;1.00;;;-1.20;99.90;;;;;;4992849;28;20257;-51
2023/02/26 07:24:13;;;;;;;4.97;1.67;;;-1.20;99.90;;;;;;4992375;28;20060;-55
2023/02/26 07:26:39;;;;;;;7.83;1.60;;;-1.20;99.90;;;;;;4992349;28;20453;-52
2023/02/26 07:29:05;;;;;;;6.80;1.20;;;-1.10;99.90;;;;;;4992636;28;20042;-55
2023/02/26 07:31:31;;;;;;;5.90;1.17;;;-1.00;99.90;;;;;;4992569;28;20580;-56
2023/02/26 07:33:57;;;;;;;7.40;1.20;;;-1.00;99.90;;;;;;4992192;28;20404;-53
2023/02/26 07:36:23;;;;;;;6.87;1.47;;;-0.90;99.90;;;;;;4992246;28;20034;-54
2023/02/26 07:38:48;;;;;;;6.53;1.77;;;-0.80;99.90;;;;;;4992203;28;20034;-52
2023/02/26 07:41:14;;;;;;;5.20;1.10;;;-0.80;99.90;;;;;;4992277;28;20038;-53
2023/02/26 07:43:41;;;;;;;7.40;1.10;;;-0.70;99.90;;;;;;4992018;28;20506;-51
2023/02/26 07:46:07;;;;;;;5.80;1.30;;;-0.60;99.90;;;;;;4992215;28;20060;-52
2023/02/26 07:48:33;;;;;;;7.80;1.30;;;-0.50;99.90;;;;;;4991820;28;20032;-56
2023/02/26 07:50:59;;;;;;;4.33;1.10;;;-0.20;99.90;;;;;;4992044;28;20026;-56
2023/02/26 07:53:25;;;;;;;6.73;1.60;;;0.30;99.90;;;;;;4991642;28;20089;-56
2023/02/26 07:55:51;;;;;;;5.77;1.00;;;0.80;99.90;;;;;;4991970;28;20112;-56
2023/02/26 07:58:17;;;;;;;4.40;0.90;;;1.10;99.90;;;;;;4991727;28;20034;-54
2023/02/26 08:00:43;;;;;;;4.67;1.10;;;1.20;99.90;;;;;;4991874;28;20034;-53
2023/02/26 08:03:09;;;;;;;4.83;1.27;;;1.20;99.90;;;;;;4991873;28;20038;-54
2023/02/26 08:05:35;;;;;;;4.13;1.10;;;1.10;99.90;;;;;;4991630;28;20113;-55
2023/02/26 08:08:02;;;;;;;4.27;1.23;;;0.90;99.90;;;;;;4991993;28;20091;-55
2023/02/26 08:10:28;;;;;;;6.10;1.13;;;0.80;99.90;;;;;;4991649;28;20030;-56
2023/02/26 08:12:54;;;;;;;5.57;1.20;;;0.80;99.90;;;;;;4991637;28;20039;-52
2023/02/26 08:15:20;;;;;;;4.37;1.00;;;0.80;99.90;;;;;;4991549;28;20026;-55
2023/02/26 08:17:46;;;;;;;5.73;1.33;;;1.00;99.90;;;;;;4991607;28;20027;-55
2023/02/26 08:20:14;;;;;;;3.80;0.80;;;1.00;99.90;;;;;;4991592;28;20034;-54
2023/02/26 08:22:40;;;;;;;5.23;1.10;;;1.20;99.90;;;;;;4974374;28;20034;-53
2023/02/26 08:25:07;;;;;;;4.13;1.10;;;1.20;99.90;;;;;;4991145;28;20038;-54
2023/02/26 08:27:32;;;;;;;5.97;1.00;;;1.30;99.90;;;;;;4991476;28;20081;-54
2023/02/26 08:29:58;;;;;;;3.07;1.13;;;1.40;99.90;;;;;;4991247;28;20038;-54
2023/02/26 08:32:26;;;;;;;4.03;1.27;;;1.70;99.90;;;;;;4990932;28;20031;-58
2023/02/26 08:34:52;;;;;;;3.73;1.10;;;2.00;99.90;;;;;;4990954;28;20514;-53
2023/02/26 08:37:20;;;;;;;3.57;0.80;;;2.40;99.90;;;;;;4991618;28;20061;-54
2023/02/26 08:39:46;;;;;;;3.67;1.00;;;2.60;99.90;;;;;;4991205;28;20030;-55
2023/02/26 08:42:15;;;;;;;5.13;1.30;;;2.50;99.90;;;;;;4991565;28;20030;-55
2023/02/26 08:44:44;;;;;;;3.22;1.30;;;2.40;99.90;;;;;;4991106;28;20468;-55
2023/02/26 08:47:10;;;;;;;5.43;1.08;;;2.30;99.90;;;;;;4991144;28;20075;-54
2023/02/26 08:49:35;;;;;;;6.40;1.27;;;2.20;99.90;;;;;;4991174;28;20435;-56
2023/02/26 08:52:01;;;;;;;4.93;1.07;;;2.20;99.90;;;;;;4991153;28;20030;-54
2023/02/26 08:54:27;;;;;;;4.83;1.20;;;2.10;99.90;;;;;;4990682;28;20026;-53
2023/02/26 08:56:54;;;;;;;3.83;1.10;;;2.20;99.90;;;;;;4990983;28;20097;-54
2023/02/26 08:59:20;;;;;;;2.47;0.97;;;2.30;99.90;;;;;;4991219;28;20031;-54
2023/02/26 09:01:46;;;;;;;3.77;1.20;;;2.40;99.90;;;;;;4991241;28;20026;-54
2023/02/26 09:04:12;;;;;;;3.03;0.90;;;2.40;99.90;;;;;;4990847;28;20034;-52
2023/02/26 09:06:37;;;;;;;3.43;0.97;;;2.40;99.90;;;;;;4990618;28;20038;-53
2023/02/26 09:09:03;;;;;;;5.27;1.20;;;2.40;99.90;;;;;;4990843;28;20034;-52
2023/02/26 09:11:31;;;;;;;3.40;1.03;;;2.50;99.90;;;;;;4991025;28;20030;-54
2023/02/26 09:14:02;;;;;;;6.13;1.37;;;2.70;99.90;;;;;;4990847;28;20034;-53
2023/02/26 09:16:29;;;;;;;3.27;0.97;;;2.90;99.90;;;;;;4991225;28;20054;-53
2023/02/26 09:18:55;;;;;;;4.33;1.10;;;3.10;99.90;;;;;;4973441;28;20140;-52
2023/02/26 09:21:22;;;;;;;4.83;1.00;;;3.30;99.90;;;;;;4990972;28;20061;-55
2023/02/26 09:23:48;;;;;;;5.70;1.20;;;3.30;99.90;;;;;;4990680;28;20037;-53
2023/02/26 09:26:14;;;;;;;4.30;0.90;;;3.40;99.90;;;;;;4990990;28;20026;-54
2023/02/26 09:28:39;;;;;;;3.93;1.33;;;3.60;99.90;;;;;;4990709;28;20045;-54
2023/02/26 09:31:08;;;;;;;3.87;1.13;;;3.90;99.90;;;;;;4990887;28;20023;-56
2023/02/26 09:33:35;;;;;;;5.63;1.13;;;4.20;99.90;;;;;;4973155;28;20443;-56
2023/02/26 09:36:01;;;;;;;3.73;0.90;;;4.40;99.90;;;;;;4990728;28;20400;-55
2023/02/26 09:38:27;;;;;;;6.73;1.00;;;4.80;99.90;;;;;;4990656;28;20029;-55
2023/02/26 09:40:55;;;;;;;3.67;1.40;;;5.00;99.60;;;;;;4990906;28;20109;-55
2023/02/26 09:44:15;;;;;;;5.27;1.30;;;4.90;99.10;;;;;;4993226;28;20026;-55
2023/02/26 09:46:50;;;;;;;4.37;1.10;;;5.10;99.10;;;;;;4952987;29;20047;-54
2023/02/26 09:49:49;;;;;;;3.67;0.90;;;5.10;98.70;;;;;;4988436;28;20042;-55
2023/02/26 09:52:24;;;;;;;3.93;0.97;;;5.50;97.60;;;;;;4976968;28;20131;-53
2023/02/26 09:54:55;;;;;;;4.60;1.10;;;5.90;96.30;;;;;;4993735;28;20467;-56
2023/02/26 09:57:33;;;;;;;5.20;1.10;;;6.30;95.90;;;;;;4994404;28;20034;-54
2023/02/26 10:00:00;;;;;;;3.53;0.90;;;6.00;95.60;;;;;;4994086;28;20037;-51
2023/02/26 10:02:37;;;;;;;3.63;0.90;;;5.90;95.70;;;;;;4994123;28;20034;-55
2023/02/26 10:05:16;;;;;;;3.33;0.80;;;6.20;95.80;;;;;;4993623;28;20031;-55
2023/02/26 10:07:53;;;;;;;2.15;0.70;;;6.60;94.40;;;;;;4993843;28;20483;-52
2023/02/26 10:10:26;;;;;;;6.80;1.80;;;6.50;93.60;;;;;;4993976;28;20030;-56
2023/02/26 10:12:52;;;;;;;6.13;1.53;;;6.20;93.20;;;;;;4993776;28;20115;-55
2023/02/26 10:15:27;;;;;;;3.87;1.10;;;6.20;93.60;;;;;;4993544;28;20026;-55
2023/02/26 10:18:10;;;;;;;6.53;1.63;;;6.10;93.30;;;;;;4993547;28;20376;-52
2023/02/26 10:21:07;;;;;;;3.37;1.00;;;6.00;92.90;;;;;;4993799;28;20407;-54
2023/02/26 10:23:49;;;;;;;4.07;0.70;;;6.20;92.40;;;;;;4993482;28;20295;-55
2023/02/26 10:26:30;;;;;;;5.13;2.17;;;7.00;92.40;;;;;;4993804;28;20035;-54
2023/02/26 10:29:00;;;;;;;10.60;5.50;;;7.90;90.00;;;;;;4993591;28;20451;-52
2023/02/26 10:31:45;;;;;;;3.53;1.00;;;8.10;87.60;;;;;;4993408;28;20038;-54
2023/02/26 10:34:23;;;;;;;2.53;0.70;;;9.00;81.80;;;;;;4995227;22;20022;-59
2023/02/26 10:37:01;;;;;;;3.08;0.90;;;9.10;79.80;;;;;;5052487;28;20027;-58
2023/02/26 10:39:42;;;;;;;2.10;0.70;;;9.40;76.40;;;;;;5052613;28;20041;-58
2023/02/26 10:42:25;;;;;;;4.03;1.13;;;9.50;75.60;;;;;;5052601;28;20025;-56
2023/02/26 10:45:25;;;;;;;3.30;0.75;;;9.30;74.20;;;;;;5052203;28;20091;-57
2023/02/26 10:48:10;;;;;;;2.42;0.80;;;8.70;74.60;;;;;;5052134;28;20031;-56
2023/02/26 10:50:40;;;;;;;4.07;0.88;;;8.80;77.50;;;;;;5052292;28;20572;-57
2023/02/26 10:53:11;;;;;;;2.35;0.85;;;8.60;76.60;;;;;;5052093;28;20401;-57
2023/02/26 10:55:39;;;;;;;2.58;1.10;;;8.60;77.00;;;;;;5051418;28;20033;-57
2023/02/26 10:58:15;;;;;;;2.78;0.80;;;8.70;75.20;;;;;;5052070;28;20040;-57
2023/02/26 11:00:47;;;;;;;1.95;0.90;;;9.30;73.80;;;;;;5052252;28;20456;-57
2023/02/26 11:03:18;;;;;;;2.55;0.88;;;9.40;71.20;;;;;;5052310;28;20497;-57
2023/02/26 11:05:45;;;;;;;1.90;0.80;;;9.50;71.70;;;;;;5051996;28;20496;-57
2023/02/26 11:08:30;;;;;;;3.30;0.73;;;9.30;70.10;;;;;;5052047;28;20405;-57
2023/02/26 11:11:03;;;;;;;4.07;0.93;;;9.40;69.70;;;;;;5052307;28;20024;-57
2023/02/26 11:13:31;;;;;;;3.87;0.90;;;8.70;71.00;;;;;;5051703;28;20041;-57
2023/02/26 11:16:01;;;;;;;3.23;0.73;;;8.00;71.80;;;;;;5051562;28;20044;-57
2023/02/26 11:18:35;;;;;;;3.13;0.83;;;7.40;74.20;;;;;;5051615;28;20028;-57
2023/02/26 11:21:04;;;;;;;1.73;0.70;;;7.30;73.70;;;;;;5052033;28;20444;-57
2023/02/26 11:23:31;;;;;;;2.00;0.80;;;7.90;71.40;;;;;;5051581;28;20025;-57
2023/02/26 11:26:05;;;;;;;5.40;1.00;;;8.20;70.40;;;;;;5051781;28;20036;-57
2023/02/26 11:28:43;;;;;;;1.90;0.90;;;8.10;72.20;;;;;;5051229;28;20508;-57
2023/02/26 11:31:11;;;;;;;4.83;1.17;;;7.80;72.70;;;;;;5051558;28;20103;-57
2023/02/26 11:33:54;;;;;;;4.00;0.90;;;7.40;73.80;;;;;;5051328;28;20075;-58
2023/02/26 11:36:24;;;;;;;4.00;0.90;;;7.40;73.90;;;;;;5051238;28;20025;-58
2023/02/26 11:39:03;;;;;;;3.17;0.83;;;7.70;73.90;;;;;;5051191;28;20489;-58
2023/02/26 11:41:30;;;;;;;3.13;0.80;;;7.30;74.80;;;;;;5051321;28;20056;-58
2023/02/26 11:44:03;;;;;;;3.60;1.20;;;7.10;72.80;;;;;;5051225;28;20029;-57
2023/02/26 11:46:30;;;;;;;3.57;1.23;;;7.30;73.60;;;;;;5051409;28;20033;-58
2023/02/26 11:48:59;;;;;;;4.00;1.10;;;6.60;74.20;;;;;;5051052;28;20029;-58
2023/02/26 11:51:27;;;;;;;2.38;0.70;;;6.10;75.50;;;;;;5051132;28;20040;-57
2023/02/26 11:53:55;;;;;;;2.83;0.80;;;5.80;74.50;;;;;;5050845;28;20036;-58
2023/02/26 11:56:37;;;;;;;4.07;1.00;;;5.90;73.60;;;;;;5050962;28;20072;-58
2023/02/26 11:59:19;;;;;;;2.47;0.57;;;6.00;76.30;;;;;;5051103;28;20021;-58
2023/02/26 12:01:46;;;;;;;1.50;0.70;;;6.20;74.50;;;;;;5050962;28;20112;-58
2023/02/26 12:04:13;;;;;;;3.90;0.60;;;6.20;72.50;;;;;;5050931;28;20106;-58
2023/02/26 12:06:39;;;;;;;2.23;0.70;;;6.40;73.80;;;;;;5050719;28;20128;-58
2023/02/26 12:09:13;;;;;;;3.23;0.70;;;6.80;72.10;;;;;;5050868;28;20082;-57
2023/02/26 12:12:17;;;;;;;2.93;0.83;;;7.20;71.60;;;;;;5050837;28;20106;-58
2023/02/26 12:15:27;;;;;;;1.57;0.80;;;7.90;70.40;;;;;;5050456;28;20060;-59
2023/02/26 12:17:53;;;;;;;5.30;0.80;;;9.00;69.30;;;;;;4988550;28;20042;-57
2023/02/26 12:20:31;;;;;;;2.53;0.70;;;9.90;65.60;;;;;;5038010;28;20486;-57
2023/02/26 12:23:18;;;;;;;2.25;0.65;;;10.70;63.60;;;;;;5050750;28;20021;-57
2023/02/26 12:25:52;;;;;;;2.22;0.70;;;10.60;60.80;;;;;;5050838;28;20227;-58
2023/02/26 12:28:48;;;;;;;2.22;0.60;;;10.00;61.60;;;;;;5050381;28;20082;-57
2023/02/26 12:31:38;;;;;;;1.63;0.80;;;9.40;63.40;;;;;;5050564;28;20508;-57
2023/02/26 12:34:20;;;;;;;4.13;0.90;;;9.20;65.40;;;;;;5050517;28;20381;-57
2023/02/26 12:37:26;;;;;;;3.10;0.68;;;9.40;65.00;;;;;;5050283;28;20116;-57
2023/02/26 12:40:10;;;;;;;3.97;1.25;;;9.70;61.90;;;;;;5050461;28;20501;-57
2023/02/26 12:42:50;;;;;;;2.53;0.70;;;10.10;60.50;;;;;;5050492;28;20033;-57
2023/02/26 12:45:46;;;;;;;1.63;0.73;;;10.00;61.60;;;;;;5050165;28;20331;-57
2023/02/26 12:48:49;;;;;;;2.45;0.70;;;10.20;61.80;;;;;;5032722;28;20029;-58
2023/02/26 12:51:26;;;;;;;2.28;0.80;;;10.30;62.40;;;;;;5050303;28;20482;-57
2023/02/26 12:54:09;;;;;;;3.42;0.90;;;10.20;61.30;;;;;;5049942;28;20029;-57
2023/02/26 12:56:50;;;;;;;3.42;0.80;;;10.00;61.80;;;;;;5050160;28;20527;-57
2023/02/26 12:59:41;;;;;;;2.85;0.70;;;9.90;60.10;;;;;;5050194;28;20036;-58
2023/02/26 13:02:38;;;;;;;2.33;0.70;;;9.20;61.20;;;;;;5050184;28;20103;-58
2023/02/26 13:05:22;;;;;;;3.53;1.10;;;8.30;63.30;;;;;;5049989;28;20087;-57
2023/02/26 13:08:02;;;;;;;1.43;0.60;;;7.40;64.20;;;;;;5050063;28;20577;-57
2023/02/26 13:10:48;;;;;;;2.20;0.80;;;7.50;66.40;;;;;;5050047;28;20021;-57
2023/02/26 13:13:40;;;;;;;3.97;1.00;;;7.70;64.80;;;;;;5050344;28;20058;-58
2023/02/26 13:16:22;;;;;;;2.57;0.80;;;7.50;64.70;;;;;;5026271;28;20056;-57
2023/02/26 13:19:19;;;;;;;2.93;0.83;;;7.80;63.20;;;;;;5053505;28;20407;-57
2023/02/26 13:21:52;;;;;;;1.80;0.63;;;8.10;64.80;;;;;;5054015;28;20108;-58